createdAt,value
2017-10-16T00:01:25.906Z,80.80
2017-10-16T00:03:52.543Z,80.70
2017-10-16T00:06:19.187Z,80.70
2017-10-16T00:08:45.853Z,80.70
2017-10-16T00:11:12.489Z,80.80
2017-10-16T00:13:39.178Z,80.70
2017-10-16T00:16:05.808Z,80.70
2017-10-16T00:18:32.445Z,80.70
2017-10-16T00:20:59.126Z,80.70
2017-10-16T00:23:25.761Z,80.70
2017-10-16T00:25:52.478Z,80.60
2017-10-16T00:28:19.113Z,80.70
2017-10-16T00:30:45.801Z,80.70
2017-10-16T00:33:12.435Z,80.60
2017-10-16T00:35:39.066Z,80.60
2017-10-16T00:38:05.730Z,80.60
2017-10-16T00:40:32.373Z,80.60
2017-10-16T00:42:59.029Z,80.60
2017-10-16T00:45:25.701Z,80.60
2017-10-16T00:47:52.371Z,80.60
2017-10-16T00:50:19.019Z,80.50
2017-10-16T00:52:45.649Z,80.60
2017-10-16T00:55:22.327Z,80.50
2017-10-16T00:57:48.964Z,80.50
2017-10-16T01:00:15.629Z,80.50
2017-10-16T01:02:42.281Z,80.50
2017-10-16T01:05:08.958Z,80.50
2017-10-16T01:07:35.604Z,80.50
2017-10-16T01:10:02.237Z,80.50
2017-10-16T01:12:28.912Z,80.50
2017-10-16T01:14:55.554Z,80.50
2017-10-16T01:17:22.233Z,80.50
2017-10-16T01:19:48.865Z,80.40
2017-10-16T01:22:15.545Z,80.50
2017-10-16T01:27:31.565Z,80.40
2017-10-16T01:29:58.201Z,80.40
2017-10-16T01:32:24.837Z,80.40
2017-10-16T01:34:51.501Z,80.40
2017-10-16T01:37:18.887Z,80.40
2017-10-16T01:39:45.547Z,80.40
2017-10-16T01:42:12.181Z,80.30
2017-10-16T01:44:38.850Z,80.40
2017-10-16T01:47:05.490Z,80.30
2017-10-16T01:49:32.429Z,80.30
2017-10-16T01:51:59.077Z,80.30
2017-10-16T01:54:25.748Z,80.30
2017-10-16T01:56:52.392Z,80.30
2017-10-16T01:59:19.748Z,80.30
2017-10-16T02:01:46.436Z,80.30
2017-10-16T02:04:13.131Z,80.20
2017-10-16T02:06:39.837Z,80.20
2017-10-16T02:09:06.474Z,80.20
2017-10-16T02:11:33.193Z,80.20
2017-10-16T02:13:59.840Z,80.20
2017-10-16T02:16:26.469Z,80.20
2017-10-16T02:18:53.146Z,80.20
2017-10-16T02:21:19.778Z,80.20
2017-10-16T02:23:46.438Z,80.10
2017-10-16T02:26:13.473Z,80.10
2017-10-16T02:28:40.146Z,80.10
2017-10-16T02:31:06.807Z,80.10
2017-10-16T02:33:33.442Z,80.20
2017-10-16T02:36:00.105Z,80.20
2017-10-16T02:38:26.737Z,80.20
2017-10-16T02:40:53.393Z,80.10
2017-10-16T02:45:51.577Z,80.10
2017-10-16T02:48:18.210Z,80.10
2017-10-16T02:50:44.850Z,80.10
2017-10-16T02:53:11.522Z,80.10
2017-10-16T02:55:38.170Z,80.10
2017-10-16T02:58:04.845Z,80.10
2017-10-16T03:00:31.477Z,80.00
2017-10-16T03:03:00.172Z,80.00
2017-10-16T03:05:26.825Z,80.00
2017-10-16T03:07:53.477Z,80.00
2017-10-16T03:10:20.136Z,80.00
2017-10-16T03:12:46.793Z,80.00
2017-10-16T03:15:13.430Z,80.00
2017-10-16T03:17:40.071Z,80.00
2017-10-16T03:20:06.706Z,80.00
2017-10-16T03:22:33.356Z,80.00
2017-10-16T03:25:01.195Z,79.90
2017-10-16T03:27:27.855Z,80.00
2017-10-16T03:29:54.483Z,79.90
2017-10-16T03:32:21.144Z,79.90
2017-10-16T03:34:47.800Z,79.90
2017-10-16T03:37:14.815Z,79.80
2017-10-16T03:39:41.467Z,79.90
2017-10-16T03:42:08.094Z,79.90
2017-10-16T03:44:34.756Z,79.90
2017-10-16T03:47:01.786Z,79.90
2017-10-16T03:49:28.409Z,79.90
2017-10-16T03:51:55.051Z,79.90
2017-10-16T03:54:21.676Z,79.90
2017-10-16T03:56:48.324Z,79.90
2017-10-16T03:59:16.423Z,79.80
2017-10-16T04:01:43.090Z,79.80
2017-10-16T04:04:10.102Z,79.80
2017-10-16T04:06:36.724Z,79.80
2017-10-16T04:09:03.359Z,79.80
2017-10-16T04:11:29.979Z,79.80
2017-10-16T04:13:56.614Z,79.80
2017-10-16T04:16:23.251Z,79.80
2017-10-16T04:18:49.903Z,79.70
2017-10-16T04:21:16.515Z,79.70
2017-10-16T04:23:43.526Z,79.80
2017-10-16T04:26:10.171Z,79.80
2017-10-16T04:28:36.791Z,79.70
2017-10-16T04:31:03.436Z,79.70
2017-10-16T04:33:30.056Z,79.70
2017-10-16T04:35:56.717Z,79.70
2017-10-16T04:38:23.390Z,79.70
2017-10-16T04:40:50.015Z,79.70
2017-10-16T04:43:16.667Z,79.70
2017-10-16T04:45:43.296Z,79.70
2017-10-16T04:48:09.934Z,79.60
2017-10-16T04:50:36.583Z,79.70
2017-10-16T04:53:03.206Z,79.60
2017-10-16T04:55:29.866Z,79.60
2017-10-16T04:57:56.535Z,79.60
2017-10-16T05:00:23.836Z,79.60
2017-10-16T05:02:50.463Z,79.60
2017-10-16T05:05:17.137Z,79.60
2017-10-16T05:07:43.775Z,79.60
2017-10-16T05:10:10.421Z,79.60
2017-10-16T05:12:37.067Z,79.60
2017-10-16T05:15:03.703Z,79.60
2017-10-16T05:17:30.339Z,79.50
2017-10-16T05:19:56.966Z,79.50
2017-10-16T05:22:23.624Z,79.50
2017-10-16T05:27:39.119Z,79.60
2017-10-16T05:30:05.759Z,79.50
2017-10-16T05:32:32.399Z,79.50
2017-10-16T05:34:59.043Z,79.40
2017-10-16T05:37:25.681Z,79.50
2017-10-16T05:39:52.341Z,79.50
2017-10-16T05:42:19.366Z,79.50
2017-10-16T05:44:45.999Z,79.50
2017-10-16T05:47:12.643Z,79.40
2017-10-16T05:49:39.287Z,79.50
2017-10-16T05:52:06.011Z,79.40
2017-10-16T05:57:21.939Z,79.40
2017-10-16T05:59:48.563Z,79.50
2017-10-16T06:02:15.201Z,79.50
2017-10-16T06:04:42.475Z,79.40
2017-10-16T06:07:09.102Z,79.40
2017-10-16T06:09:35.747Z,79.50
2017-10-16T06:12:02.371Z,79.40
2017-10-16T06:14:29.031Z,79.40
2017-10-16T06:16:55.651Z,79.40
2017-10-16T06:19:22.315Z,79.30
2017-10-16T06:21:48.955Z,79.30
2017-10-16T06:24:15.576Z,79.40
2017-10-16T06:26:42.231Z,79.40
2017-10-16T06:29:08.864Z,79.30
2017-10-16T06:31:35.528Z,79.40
2017-10-16T06:34:02.565Z,79.30
2017-10-16T06:36:29.183Z,79.30
2017-10-16T06:38:55.839Z,79.20
2017-10-16T06:41:22.467Z,79.30
2017-10-16T06:43:49.110Z,79.30
2017-10-16T06:46:15.729Z,79.30
2017-10-16T06:48:42.391Z,79.20
2017-10-16T06:51:09.010Z,79.30
2017-10-16T06:53:35.634Z,79.20
2017-10-16T06:56:02.291Z,79.20
2017-10-16T06:58:28.938Z,79.30
2017-10-16T07:00:55.606Z,79.30
2017-10-16T07:03:22.614Z,79.20
2017-10-16T07:05:49.235Z,79.30
2017-10-16T07:08:15.887Z,79.30
2017-10-16T07:10:42.507Z,79.30
2017-10-16T07:13:09.157Z,79.30
2017-10-16T07:15:35.771Z,79.30
2017-10-16T07:18:02.832Z,79.30
2017-10-16T07:20:29.458Z,79.30
2017-10-16T07:22:56.525Z,79.30
2017-10-16T07:25:28.719Z,79.30
2017-10-16T07:27:55.343Z,79.30
2017-10-16T07:30:21.988Z,79.30
2017-10-16T07:32:48.615Z,79.30
2017-10-16T07:35:15.423Z,79.40
2017-10-16T07:37:42.059Z,79.40
2017-10-16T07:40:08.693Z,79.40
2017-10-16T07:42:35.335Z,79.50
2017-10-16T07:45:01.975Z,79.50
2017-10-16T07:47:28.615Z,79.60
2017-10-16T07:49:55.247Z,79.50
2017-10-16T07:52:21.906Z,79.50
2017-10-16T07:57:37.404Z,79.60
2017-10-16T08:00:04.032Z,79.60
2017-10-16T08:02:30.647Z,79.50
2017-10-16T08:04:57.283Z,79.60
2017-10-16T08:07:23.904Z,79.60
2017-10-16T08:09:50.571Z,79.60
2017-10-16T08:12:17.187Z,79.60
2017-10-16T08:14:43.839Z,79.60
2017-10-16T08:17:10.460Z,79.60
2017-10-16T08:19:37.139Z,79.50
2017-10-16T08:22:03.808Z,79.50
2017-10-16T08:27:19.616Z,79.50
2017-10-16T08:29:46.239Z,79.60
2017-10-16T08:32:12.887Z,79.60
2017-10-16T08:34:39.510Z,79.60
2017-10-16T08:37:06.147Z,79.60
2017-10-16T08:39:32.771Z,79.70
2017-10-16T08:41:59.430Z,79.70
2017-10-16T08:44:27.022Z,79.70
2017-10-16T08:46:53.647Z,79.70
2017-10-16T08:49:20.324Z,79.60
2017-10-16T08:51:46.943Z,79.70
2017-10-16T08:54:13.983Z,79.80
2017-10-16T08:56:40.602Z,79.80
2017-10-16T08:59:07.260Z,79.80
2017-10-16T09:01:34.810Z,79.80
2017-10-16T09:04:01.432Z,79.80
2017-10-16T09:06:28.071Z,79.80
2017-10-16T09:08:54.698Z,79.90
2017-10-16T09:11:21.356Z,79.90
2017-10-16T09:13:47.982Z,79.90
2017-10-16T09:16:14.628Z,79.90
2017-10-16T09:18:41.246Z,80.00
2017-10-16T09:21:07.859Z,79.90
2017-10-16T09:23:34.505Z,79.90
2017-10-16T09:26:01.128Z,80.00
2017-10-16T09:28:28.180Z,80.00
2017-10-16T09:30:55.200Z,80.10
2017-10-16T09:33:21.859Z,80.00
2017-10-16T09:35:48.492Z,80.10
2017-10-16T09:38:15.122Z,80.10
2017-10-16T09:40:42.288Z,80.10
2017-10-16T09:43:08.919Z,80.20
2017-10-16T09:45:35.562Z,80.20
2017-10-16T09:48:02.187Z,80.30
2017-10-16T09:50:28.846Z,80.20
2017-10-16T09:52:55.482Z,80.20
2017-10-16T09:55:32.190Z,80.20
2017-10-16T09:57:58.815Z,80.20
2017-10-16T10:00:25.439Z,80.20
2017-10-16T10:02:52.105Z,80.30
2017-10-16T10:05:19.587Z,80.30
2017-10-16T10:07:46.228Z,80.30
2017-10-16T10:10:12.858Z,80.40
2017-10-16T10:12:39.509Z,80.40
2017-10-16T10:15:06.696Z,80.40
2017-10-16T10:17:33.310Z,80.50
2017-10-16T10:19:59.955Z,80.50
2017-10-16T10:22:26.570Z,80.50
2017-10-16T10:24:53.207Z,80.60
2017-10-16T10:27:19.832Z,80.60
2017-10-16T10:29:46.891Z,80.60
2017-10-16T10:32:13.506Z,80.60
2017-10-16T10:34:40.140Z,80.60
2017-10-16T10:37:06.787Z,80.70
2017-10-16T10:39:33.403Z,80.80
2017-10-16T10:42:00.271Z,80.70
2017-10-16T10:44:26.899Z,80.70
2017-10-16T10:46:53.539Z,80.90
2017-10-16T10:49:20.160Z,80.80
2017-10-16T10:51:46.894Z,80.90
2017-10-16T10:54:13.511Z,81.00
2017-10-16T10:56:40.303Z,81.00
2017-10-16T10:59:06.923Z,81.00
2017-10-16T11:01:33.536Z,81.00
2017-10-16T11:04:00.176Z,81.10
2017-10-16T11:06:26.798Z,81.10
2017-10-16T11:08:53.443Z,81.20
2017-10-16T11:11:20.066Z,81.30
2017-10-16T11:13:47.163Z,81.30
2017-10-16T11:16:13.828Z,81.30
2017-10-16T11:18:40.459Z,81.40
2017-10-16T11:21:07.099Z,81.40
2017-10-16T11:23:33.756Z,81.50
2017-10-16T11:26:00.411Z,81.50
2017-10-16T11:28:27.443Z,81.50
2017-10-16T11:30:54.068Z,81.50
2017-10-16T11:33:20.738Z,81.60
2017-10-16T11:35:48.591Z,81.70
2017-10-16T11:38:15.250Z,81.70
2017-10-16T11:40:42.279Z,81.80
2017-10-16T11:43:08.908Z,81.80
2017-10-16T11:45:35.543Z,81.90
2017-10-16T11:48:02.167Z,81.90
2017-10-16T11:50:28.811Z,82.00
2017-10-16T11:52:55.422Z,82.00
2017-10-16T11:55:22.086Z,82.10
2017-10-16T11:57:48.698Z,82.10
2017-10-16T12:00:15.370Z,82.10
2017-10-16T12:02:42.007Z,82.10
2017-10-16T12:05:08.648Z,82.20
2017-10-16T12:07:35.291Z,82.20
2017-10-16T12:10:01.911Z,82.30
2017-10-16T12:12:28.563Z,82.40
2017-10-16T12:14:55.192Z,82.40
2017-10-16T12:17:21.815Z,82.40
2017-10-16T12:19:48.536Z,82.40
2017-10-16T12:22:15.171Z,82.40
2017-10-16T12:27:30.887Z,82.50
2017-10-16T12:29:57.547Z,82.40
2017-10-16T12:32:24.172Z,82.60
2017-10-16T12:34:51.208Z,82.60
2017-10-16T12:37:17.859Z,82.60
2017-10-16T12:39:44.883Z,82.70
2017-10-16T12:42:11.527Z,82.90
2017-10-16T12:44:38.146Z,82.70
2017-10-16T12:47:05.415Z,82.70
2017-10-16T12:49:32.063Z,82.90
2017-10-16T12:51:58.687Z,82.70
2017-10-16T12:54:25.330Z,82.90
2017-10-16T12:56:51.979Z,82.90
2017-10-16T12:59:18.627Z,82.90
2017-10-16T13:01:45.667Z,83.10
2017-10-16T13:04:12.328Z,82.90
2017-10-16T13:06:39.355Z,83.10
2017-10-16T13:09:05.992Z,83.10
2017-10-16T13:11:32.656Z,83.10
2017-10-16T13:13:59.681Z,83.30
2017-10-16T13:16:26.323Z,83.30
2017-10-16T13:18:52.964Z,83.10
2017-10-16T13:21:19.634Z,83.10
2017-10-16T13:23:46.291Z,83.10
2017-10-16T13:26:12.919Z,83.10
2017-10-16T13:28:39.557Z,83.10
2017-10-16T13:31:06.578Z,83.40
2017-10-16T13:33:33.219Z,83.40
2017-10-16T13:36:00.512Z,83.40
2017-10-16T13:38:27.274Z,83.40
2017-10-16T13:40:53.903Z,83.40
2017-10-16T13:43:20.519Z,83.30
2017-10-16T13:45:47.178Z,83.50
2017-10-16T13:48:13.800Z,83.50
2017-10-16T13:50:41.166Z,83.50
2017-10-16T13:53:07.804Z,83.70
2017-10-16T13:55:35.656Z,83.60
2017-10-16T13:58:02.955Z,83.50
2017-10-16T14:00:29.571Z,83.60
2017-10-16T14:02:56.215Z,83.60
2017-10-16T14:05:22.841Z,83.60
2017-10-16T14:07:49.489Z,83.60
2017-10-16T14:10:16.892Z,83.60
2017-10-16T14:12:43.551Z,83.60
2017-10-16T14:15:14.780Z,83.60
2017-10-16T14:17:41.439Z,83.60
2017-10-16T14:20:08.075Z,83.70
2017-10-16T14:22:34.954Z,83.60
2017-10-16T14:27:51.367Z,83.80
2017-10-16T14:30:17.988Z,83.80
2017-10-16T14:32:44.624Z,83.80
2017-10-16T14:35:11.267Z,83.80
2017-10-16T14:37:37.926Z,83.70
2017-10-16T14:40:04.566Z,83.70
2017-10-16T14:42:31.586Z,83.70
2017-10-16T14:44:58.251Z,83.70
2017-10-16T14:47:25.266Z,83.80
2017-10-16T14:49:51.882Z,83.70
2017-10-16T14:52:18.530Z,83.70
2017-10-16T14:57:34.799Z,83.80
2017-10-16T15:00:01.429Z,83.80
2017-10-16T15:02:28.088Z,83.80
2017-10-16T15:04:55.162Z,83.80
2017-10-16T15:07:21.798Z,83.80
2017-10-16T15:09:48.450Z,83.80
2017-10-16T15:12:15.534Z,83.90
2017-10-16T15:14:43.048Z,83.90
2017-10-16T15:17:09.680Z,83.90
2017-10-16T15:19:37.427Z,83.90
2017-10-16T15:22:04.053Z,83.90
2017-10-16T15:27:13.324Z,83.90
2017-10-16T15:29:39.962Z,83.90
2017-10-16T15:32:06.579Z,84.00
2017-10-16T15:34:33.239Z,84.00
2017-10-16T15:36:59.862Z,84.00
2017-10-16T15:39:26.486Z,83.90
2017-10-16T15:41:53.139Z,83.90
2017-10-16T15:44:19.783Z,84.00
2017-10-16T15:46:46.507Z,84.00
2017-10-16T15:49:13.128Z,84.00
2017-10-16T15:51:39.770Z,84.00
2017-10-16T15:54:06.384Z,84.00
2017-10-16T15:56:33.027Z,84.00
2017-10-16T15:58:59.668Z,84.00
2017-10-16T16:01:26.311Z,84.10
2017-10-16T16:03:52.939Z,84.10
2017-10-16T16:06:19.643Z,84.10
2017-10-16T16:08:46.267Z,84.10
2017-10-16T16:11:12.887Z,84.00
2017-10-16T16:13:39.536Z,84.00
2017-10-16T16:16:06.195Z,84.00
2017-10-16T16:18:32.847Z,84.00
2017-10-16T16:20:59.468Z,84.10
2017-10-16T16:23:26.112Z,84.00
2017-10-16T16:25:52.772Z,84.00
2017-10-16T16:28:19.422Z,84.00
2017-10-16T16:30:46.451Z,84.00
2017-10-16T16:33:13.111Z,84.00
2017-10-16T16:35:40.146Z,84.00
2017-10-16T16:38:06.852Z,84.00
2017-10-16T16:40:33.503Z,84.10
2017-10-16T16:43:00.157Z,84.00
2017-10-16T16:45:26.791Z,84.00
2017-10-16T16:47:53.448Z,84.00
2017-10-16T16:50:20.072Z,84.00
2017-10-16T16:52:46.699Z,84.00
